Time;durP1;ratioP1;P1;durP2;ratioP2;P2;SDS_P1;SDS_P2;PMS_P1;PMS_P2;Temp;Humidity;BMP_temperature;BMP_pressure;BME280_temperature;BME280_humidity;BME280_pressure;Samples;Min_cycle;Max_cycle;Signal;HPM_P1;HPM_P2
2021/10/25 00:00:54;;;;;;;15.88;5.05;;;;;;;-141.50;100.00;63355.56;4958458;28;20518;-81
2021/10/25 00:03:21;;;;;;;10.68;4.00;;;;;;;-141.50;100.00;63355.56;4974210;28;20050;-78
2021/10/25 00:05:48;;;;;;;13.05;5.00;;;;;;;-141.50;100.00;63355.56;4958044;28;20050;-79
2021/10/25 00:08:15;;;;;;;15.05;4.88;;;;;;;-141.50;100.00;63355.56;4975684;28;20550;-82
2021/10/25 00:10:42;;;;;;;13.60;4.35;;;;;;;-141.50;100.00;63355.56;4975665;28;20141;-78
2021/10/25 00:13:09;;;;;;;15.02;4.45;;;;;;;-141.50;100.00;63355.56;4974839;28;20526;-79
2021/10/25 00:15:37;;;;;;;15.05;5.13;;;;;;;-141.50;100.00;63355.56;4968283;28;20085;-79
2021/10/25 00:18:04;;;;;;;14.45;4.28;;;;;;;-141.50;100.00;63355.56;4968432;28;20051;-79
2021/10/25 00:20:32;;;;;;;13.27;4.38;;;;;;;-141.50;100.00;63355.56;4975217;28;20559;-81
2021/10/25 00:22:58;;;;;;;16.27;4.60;;;;;;;-141.50;100.00;63355.56;4980849;28;20047;-78
2021/10/25 00:25:25;;;;;;;15.57;4.30;;;;;;;-141.50;100.00;63355.56;4956787;28;20046;-80
2021/10/25 00:27:52;;;;;;;18.45;4.22;;;;;;;-141.50;100.00;63355.56;4973628;28;20055;-78
2021/10/25 00:30:18;;;;;;;13.27;4.15;;;;;;;-141.50;100.00;63355.56;4974398;28;20047;-79
2021/10/25 00:32:45;;;;;;;12.43;4.40;;;;;;;-141.50;100.00;63355.56;4973708;28;20058;-80
2021/10/25 00:35:11;;;;;;;10.77;4.43;;;;;;;-141.50;100.00;63355.56;4974016;28;20499;-79
2021/10/25 00:37:38;;;;;;;17.95;4.38;;;;;;;-141.50;100.00;63355.56;4978169;28;20054;-78
2021/10/25 00:40:07;;;;;;;16.00;4.20;;;;;;;-141.50;100.00;63355.56;4975258;28;20574;-78
2021/10/25 00:42:33;;;;;;;14.95;4.50;;;;;;;-141.50;100.00;63355.56;4975141;28;20057;-80
2021/10/25 00:45:00;;;;;;;12.25;4.25;;;;;;;-141.50;100.00;63355.56;4955350;28;20054;-83
2021/10/25 00:47:27;;;;;;;15.18;4.35;;;;;;;-141.50;100.00;63355.56;4973112;28;20038;-80
2021/10/25 00:49:53;;;;;;;15.88;4.47;;;;;;;-141.50;100.00;63355.56;4975163;28;20051;-78
2021/10/25 00:52:20;;;;;;;15.18;4.45;;;;;;;-141.50;100.00;63355.56;4961574;28;20051;-81
2021/10/25 00:54:46;;;;;;;10.43;3.78;;;;;;;-141.50;100.00;63355.56;4976678;28;20039;-81
2021/10/25 00:57:13;;;;;;;12.10;4.10;;;;;;;-141.50;100.00;63355.56;4974162;28;20039;-79
2021/10/25 00:59:40;;;;;;;17.05;4.05;;;;;;;-141.50;100.00;63355.56;4974740;28;20043;-78
2021/10/25 01:02:08;;;;;;;14.05;3.88;;;;;;;-141.50;100.00;63355.56;4957523;28;20050;-82
2021/10/25 01:04:35;;;;;;;11.25;3.97;;;;;;;-141.50;100.00;63355.56;4974636;28;20051;-79
2021/10/25 01:07:03;;;;;;;9.95;3.83;;;;;;;-141.50;100.00;63355.56;4979227;28;20114;-77
2021/10/25 01:09:31;;;;;;;13.93;3.85;;;;;;;-141.50;100.00;63355.56;4973337;28;20233;-78
2021/10/25 01:11:58;;;;;;;15.40;4.57;;;;;;;-141.50;100.00;63355.56;4973513;28;20541;-79
2021/10/25 01:14:24;;;;;;;13.20;4.13;;;;;;;-141.50;100.00;63355.56;4955794;28;20061;-81
2021/10/25 01:16:53;;;;;;;12.00;4.03;;;;;;;-141.50;100.00;63355.56;4956038;28;20043;-80
2021/10/25 01:19:20;;;;;;;16.40;3.60;;;;;;;-141.50;100.00;63355.56;4956272;28;20075;-77
2021/10/25 01:21:47;;;;;;;12.25;4.00;;;;;;;-141.50;100.00;63355.56;4956492;28;20043;-81
2021/10/25 01:24:14;;;;;;;12.30;4.00;;;;;;;-141.50;100.00;63355.56;4956170;28;20070;-82
2021/10/25 01:26:41;;;;;;;17.15;4.00;;;;;;;-141.50;100.00;63355.56;4969711;23;20138;-81
2021/10/25 01:29:08;;;;;;;14.05;3.95;;;;;;;-141.50;100.00;63355.56;4941560;29;20500;-81
2021/10/25 01:31:35;;;;;;;9.90;4.05;;;;;;;-141.50;100.00;63355.56;4941076;29;20051;-86
2021/10/25 01:34:02;;;;;;;13.30;4.13;;;;;;;-141.50;100.00;63355.56;4955323;29;20051;-82
2021/10/25 01:36:29;;;;;;;12.68;4.28;;;;;;;-141.50;100.00;63355.56;4947848;29;20075;-82
2021/10/25 01:38:56;;;;;;;15.73;3.88;;;;;;;-141.50;100.00;63355.56;4948327;29;20051;-82
2021/10/25 01:41:23;;;;;;;12.30;3.55;;;;;;;-141.50;100.00;63355.56;4947682;29;20055;-83
2021/10/25 01:43:49;;;;;;;11.63;4.18;;;;;;;-141.50;100.00;63355.56;4961977;28;20155;-82
2021/10/25 01:46:18;;;;;;;9.57;3.50;;;;;;;-141.50;100.00;63355.56;4961402;29;20058;-82
2021/10/25 01:48:45;;;;;;;15.52;3.83;;;;;;;-141.50;100.00;63355.56;4945402;29;20114;-83
2021/10/25 01:51:11;;;;;;;12.90;3.75;;;;;;;-141.50;100.00;63355.56;4944063;29;20055;-81
2021/10/25 01:53:38;;;;;;;10.18;3.75;;;;;;;-141.50;100.00;63355.56;4943157;29;20059;-81
2021/10/25 01:56:09;;;;;;;12.15;3.55;;;;;;;-141.50;100.00;63355.56;4943078;28;20420;-82
2021/10/25 01:58:36;;;;;;;13.98;3.70;;;;;;;-141.50;100.00;63355.56;4960773;28;20051;-81
2021/10/25 02:01:04;;;;;;;12.02;3.80;;;;;;;-141.50;100.00;63355.56;4959106;29;20039;-81
2021/10/25 02:03:33;;;;;;;17.50;4.30;;;;;;;-141.50;100.00;63355.56;4942773;29;20047;-81
2021/10/25 02:06:00;;;;;;;12.27;3.75;;;;;;;-141.50;100.00;63355.56;4941619;29;20059;-80
2021/10/25 02:08:31;;;;;;;12.98;3.95;;;;;;;-141.50;100.00;63355.56;4941134;29;20058;-81
2021/10/25 02:10:58;;;;;;;10.30;3.78;;;;;;;-141.50;100.00;63355.56;4939408;29;20149;-80
2021/10/25 02:13:25;;;;;;;10.32;3.70;;;;;;;-141.50;100.00;63355.56;4956359;29;20058;-83
2021/10/25 02:15:53;;;;;;;11.55;4.10;;;;;;;-141.50;100.00;63355.56;4957982;29;20070;-81
2021/10/25 02:18:20;;;;;;;12.73;3.78;;;;;;;-141.50;100.00;63355.56;4958515;28;20107;-82
2021/10/25 02:20:47;;;;;;;13.27;3.60;;;;;;;-141.50;100.00;63355.56;4957575;28;20657;-80
2021/10/25 02:23:13;;;;;;;13.57;4.22;;;;;;;-141.50;100.00;63355.56;4941083;29;20575;-81
2021/10/25 02:25:40;;;;;;;11.07;3.65;;;;;;;-141.50;100.00;63355.56;4941188;29;20058;-84
2021/10/25 02:28:06;;;;;;;12.73;3.85;;;;;;;-141.50;100.00;63355.56;4958096;28;20039;-82
2021/10/25 02:30:33;;;;;;;13.48;3.72;;;;;;;-141.50;100.00;63355.56;4957982;29;20047;-81
2021/10/25 02:33:01;;;;;;;11.52;3.75;;;;;;;-141.50;100.00;63355.56;4956223;28;20051;-84
2021/10/25 02:35:29;;;;;;;14.88;4.05;;;;;;;-141.50;100.00;63355.56;4941283;29;20059;-81
2021/10/25 02:37:57;;;;;;;11.25;3.85;;;;;;;-141.50;100.00;63355.56;4958219;28;20428;-83
2021/10/25 02:40:28;;;;;;;10.32;4.00;;;;;;;-141.50;100.00;63355.56;4958401;28;20054;-81
2021/10/25 02:42:56;;;;;;;12.30;3.70;;;;;;;-141.50;100.00;63355.56;4941936;29;20047;-81
2021/10/25 02:45:24;;;;;;;9.05;3.75;;;;;;;-141.50;100.00;63355.56;4942657;29;20334;-82
2021/10/25 02:47:51;;;;;;;12.35;3.40;;;;;;;-141.50;100.00;63355.56;4941566;29;20157;-83
2021/10/25 02:50:18;;;;;;;12.45;3.55;;;;;;;-141.50;100.00;63355.56;4958464;28;20058;-80
2021/10/25 02:52:45;;;;;;;11.73;3.80;;;;;;;-141.50;100.00;63355.56;4958212;29;20054;-83
2021/10/25 02:55:12;;;;;;;11.98;3.70;;;;;;;-141.50;100.00;63355.56;4942383;29;20310;-81
2021/10/25 02:57:40;;;;;;;13.85;4.10;;;;;;;-141.50;100.00;63355.56;4942164;29;20051;-81
2021/10/25 03:00:10;;;;;;;9.40;3.50;;;;;;;-141.50;100.00;63355.56;4957764;28;20055;-81
2021/10/25 03:02:37;;;;;;;11.90;3.50;;;;;;;-141.50;100.00;63355.56;4958902;28;20047;-81
2021/10/25 03:05:05;;;;;;;10.68;3.95;;;;;;;-141.50;100.00;63355.56;4958548;28;20062;-83
2021/10/25 03:07:32;;;;;;;11.25;3.53;;;;;;;-141.50;100.00;63355.56;4942412;29;20142;-83
2021/10/25 03:09:59;;;;;;;10.93;3.67;;;;;;;-141.50;100.00;63355.56;4960235;28;20142;-82
2021/10/25 03:12:26;;;;;;;15.57;3.78;;;;;;;-141.50;100.00;63355.56;4960442;28;20039;-81
2021/10/25 03:14:54;;;;;;;14.23;3.90;;;;;;;-141.50;100.00;63355.56;4960733;28;20053;-82
2021/10/25 03:17:21;;;;;;;11.65;3.67;;;;;;;-141.50;100.00;63355.56;4956916;28;20051;-81
2021/10/25 03:19:48;;;;;;;14.13;4.32;;;;;;;-141.50;100.00;63355.56;4945424;29;20598;-82
2021/10/25 03:22:14;;;;;;;18.50;4.03;;;;;;;-141.50;100.00;63355.56;4963911;28;20047;-82
2021/10/25 03:24:42;;;;;;;11.70;3.67;;;;;;;-141.50;100.00;63355.56;4946309;29;20518;-82
2021/10/25 03:27:09;;;;;;;11.68;3.38;;;;;;;-141.50;100.00;63355.56;4939595;29;20039;-82
2021/10/25 03:29:36;;;;;;;15.07;4.57;;;;;;;-141.50;100.00;63355.56;4941398;29;20405;-82
2021/10/25 03:32:03;;;;;;;10.90;4.15;;;;;;;-141.50;100.00;63355.56;4936890;29;20649;-83
2021/10/25 03:34:30;;;;;;;13.93;4.00;;;;;;;-141.50;100.00;63355.56;4952020;29;20058;-81
2021/10/25 03:36:57;;;;;;;12.38;4.05;;;;;;;-141.50;100.00;63355.56;4933950;29;20055;-81
2021/10/25 03:39:26;;;;;;;12.88;3.80;;;;;;;-141.50;100.00;63355.56;4939959;29;20091;-82
2021/10/25 03:41:55;;;;;;;14.18;4.25;;;;;;;-141.50;100.00;63355.56;4941591;29;20070;-82
2021/10/25 03:44:28;;;;;;;10.77;4.32;;;;;;;-141.50;100.00;63355.56;4925954;29;20114;-83
2021/10/25 03:52:01;;;;;;;14.02;3.97;;;;;;;-141.50;100.00;63355.56;4958023;29;20063;-83
2021/10/25 03:54:36;;;;;;;11.18;4.32;;;;;;;-141.50;100.00;63355.56;4963678;29;20047;-83
2021/10/25 04:29:41;;;;;;;7.90;3.33;;;;;;;-141.50;100.00;63355.56;4942313;29;20060;-82
2021/10/25 04:32:08;;;;;;;12.60;4.40;;;;;;;-141.50;100.00;63355.56;4926706;29;20362;-81
2021/10/25 04:34:35;;;;;;;12.60;4.45;;;;;;;-141.50;100.00;63355.56;4941351;29;20055;-82
2021/10/25 04:37:02;;;;;;;13.98;5.15;;;;;;;-141.50;100.00;63355.56;4940694;23;20058;-81
2021/10/25 04:39:29;;;;;;;12.93;4.72;;;;;;;-141.50;100.00;63355.56;4934250;29;20055;-82
2021/10/25 04:41:56;;;;;;;13.23;5.13;;;;;;;-141.50;100.00;63355.56;4933304;29;20043;-82
2021/10/25 04:44:24;;;;;;;18.63;4.95;;;;;;;-141.50;100.00;63355.56;4933328;29;20051;-83
2021/10/25 04:46:51;;;;;;;11.40;4.78;;;;;;;-141.50;100.00;63355.56;4933574;29;20044;-82
2021/10/25 04:49:18;;;;;;;11.40;4.93;;;;;;;-141.50;100.00;63355.56;4931442;29;20095;-83
2021/10/25 04:51:46;;;;;;;17.45;5.22;;;;;;;-141.50;100.00;63355.56;4933176;29;20150;-82
2021/10/25 04:54:13;;;;;;;14.50;4.45;;;;;;;-141.50;100.00;63355.56;4931281;29;20069;-82
2021/10/25 04:56:39;;;;;;;13.25;4.65;;;;;;;-141.50;100.00;63355.56;4932904;29;20126;-84
2021/10/25 04:59:06;;;;;;;15.52;4.85;;;;;;;-141.50;100.00;63355.56;4915160;29;20448;-82
2021/10/25 05:01:32;;;;;;;10.20;4.80;;;;;;;-141.50;100.00;63355.56;4930915;29;20583;-82
2021/10/25 05:04:00;;;;;;;16.42;5.00;;;;;;;-141.50;100.00;63355.56;4914633;29;20074;-81
2021/10/25 05:06:27;;;;;;;12.73;4.90;;;;;;;-141.50;100.00;63355.56;4932036;29;20048;-85
2021/10/25 05:08:53;;;;;;;13.82;5.40;;;;;;;-141.50;100.00;63355.56;4914951;29;20052;-82
2021/10/25 05:11:20;;;;;;;13.32;5.40;;;;;;;-141.50;100.00;63355.56;4936877;29;20496;-81
2021/10/25 05:13:47;;;;;;;13.80;5.65;;;;;;;-141.50;100.00;63355.56;4932374;29;20071;-83
2021/10/25 05:16:13;;;;;;;19.60;5.68;;;;;;;-141.50;100.00;63355.56;4932018;29;20044;-83
2021/10/25 05:18:40;;;;;;;18.50;5.55;;;;;;;-141.50;100.00;63355.56;4921270;29;20044;-85
2021/10/25 05:21:06;;;;;;;13.68;5.57;;;;;;;-141.50;100.00;63355.56;4942486;29;20500;-83
2021/10/25 05:23:33;;;;;;;21.33;5.95;;;;;;;-141.50;100.00;63355.56;4930853;29;20047;-83
2021/10/25 05:26:01;;;;;;;10.40;5.25;;;;;;;-141.50;100.00;63355.56;4943641;29;20059;-82
2021/10/25 05:28:32;;;;;;;10.32;4.63;;;;;;;-141.50;100.00;63355.56;4928129;29;20040;-82
2021/10/25 05:30:58;;;;;;;12.38;5.30;;;;;;;-141.50;100.00;63355.56;4912021;29;20465;-83
2021/10/25 05:33:25;;;;;;;11.82;5.28;;;;;;;-141.50;100.00;63355.56;4910517;29;20154;-83
2021/10/25 05:35:52;;;;;;;14.27;5.25;;;;;;;-141.50;100.00;63355.56;4926218;29;20492;-83
2021/10/25 05:38:19;;;;;;;14.90;5.80;;;;;;;-141.50;100.00;63355.56;4929053;29;20532;-83
2021/10/25 05:40:46;;;;;;;11.82;5.18;;;;;;;-141.50;100.00;63355.56;4944973;29;20423;-84
2021/10/25 05:43:12;;;;;;;14.63;5.47;;;;;;;-141.50;100.00;63355.56;4945058;28;20491;-84
2021/10/25 05:45:39;;;;;;;13.25;5.70;;;;;;;-141.50;100.00;63355.56;4926973;29;20055;-83
2021/10/25 05:48:06;;;;;;;14.65;5.85;;;;;;;-141.50;100.00;63355.56;4913180;29;20081;-84
2021/10/25 05:50:33;;;;;;;16.35;6.25;;;;;;;-141.50;100.00;63355.56;4947004;28;20528;-83
2021/10/25 05:53:00;;;;;;;21.27;6.63;;;;;;;-141.50;100.00;63355.56;4946977;28;20624;-84
2021/10/25 05:55:28;;;;;;;20.77;6.68;;;;;;;-141.50;100.00;63355.56;4944729;29;20428;-83
2021/10/25 05:57:55;;;;;;;17.40;5.88;;;;;;;-141.50;100.00;63355.56;4929663;28;20535;-83
2021/10/25 06:00:28;;;;;;;17.02;6.60;;;;;;;-141.50;100.00;63355.56;4925585;29;20059;-83
2021/10/25 06:02:57;;;;;;;15.60;6.05;;;;;;;-141.50;100.00;63355.56;4924476;29;20054;-83
2021/10/25 06:05:28;;;;;;;18.08;6.50;;;;;;;-141.50;100.00;63355.56;4917563;29;20070;-83
2021/10/25 06:07:54;;;;;;;23.48;6.47;;;;;;;-141.50;100.00;63355.56;4940095;28;20088;-83
2021/10/25 06:10:28;;;;;;;16.33;6.30;;;;;;;-141.50;100.00;63355.56;4929561;29;20088;-83
2021/10/25 06:12:59;;;;;;;20.52;6.30;;;;;;;-141.50;100.00;63355.56;4929129;29;20290;-83
2021/10/25 06:15:30;;;;;;;21.85;7.07;;;;;;;-141.50;100.00;63355.56;4913085;29;20121;-83
2021/10/25 06:17:57;;;;;;;17.58;6.85;;;;;;;-141.50;100.00;63355.56;4929559;29;20564;-83
2021/10/25 06:20:28;;;;;;;18.15;6.40;;;;;;;-141.50;100.00;63355.56;4931569;29;20047;-84
2021/10/25 06:22:56;;;;;;;14.02;6.25;;;;;;;-141.50;100.00;63355.56;4951713;29;20043;-83
2021/10/25 06:25:23;;;;;;;19.60;7.00;;;;;;;-141.50;100.00;63355.56;4940652;29;20047;-84
2021/10/25 06:27:51;;;;;;;13.55;6.47;;;;;;;-141.50;100.00;63355.56;4944576;29;20045;-84
2021/10/25 06:30:19;;;;;;;17.90;6.75;;;;;;;-141.50;100.00;63355.56;4938974;29;20078;-84
2021/10/25 06:32:47;;;;;;;30.38;11.23;;;;;;;-141.50;100.00;63355.56;4929335;29;20080;-83
2021/10/25 06:35:15;;;;;;;47.00;18.17;;;;;;;-141.50;100.00;63355.56;4912761;29;20488;-83
2021/10/25 06:37:57;;;;;;;51.00;19.35;;;;;;;-141.50;100.00;63355.56;4897125;29;20051;-84
2021/10/25 06:40:26;;;;;;;152.90;52.17;;;;;;;-141.50;100.00;63355.56;4928025;29;20638;-84
2021/10/25 06:42:54;;;;;;;150.55;54.17;;;;;;;-141.50;100.00;63355.56;4899050;29;20074;-84
2021/10/25 06:45:22;;;;;;;38.38;14.52;;;;;;;-141.50;100.00;63355.56;4913994;29;20048;-83
2021/10/25 06:47:50;;;;;;;23.20;9.40;;;;;;;-141.50;100.00;63355.56;4918408;29;20095;-83
2021/10/25 06:50:22;;;;;;;26.98;7.10;;;;;;;-141.50;100.00;63355.56;4933009;29;20210;-83
2021/10/25 06:52:50;;;;;;;18.38;6.43;;;;;;;-141.50;100.00;63355.56;4913468;29;20050;-82
2021/10/25 06:55:17;;;;;;;16.02;6.30;;;;;;;-141.50;100.00;63355.56;4930591;29;20626;-82
2021/10/25 06:57:44;;;;;;;16.92;6.35;;;;;;;-141.50;100.00;63355.56;4914776;29;20051;-84
2021/10/25 07:00:11;;;;;;;17.60;6.47;;;;;;;-141.50;100.00;63355.56;4928938;29;20135;-84
2021/10/25 07:02:38;;;;;;;19.70;6.80;;;;;;;-141.50;100.00;63355.56;4945575;28;20046;-84
2021/10/25 07:05:05;;;;;;;17.05;6.80;;;;;;;-141.50;100.00;63355.56;4930815;29;20147;-84
2021/10/25 07:07:32;;;;;;;19.55;6.47;;;;;;;-141.50;100.00;63355.56;4934611;29;20048;-84
2021/10/25 07:09:59;;;;;;;19.17;6.82;;;;;;;-141.50;100.00;63355.56;4898323;29;20060;-84
2021/10/25 07:12:27;;;;;;;15.35;6.78;;;;;;;-141.50;100.00;63355.56;4915593;29;20087;-83
2021/10/25 07:14:56;;;;;;;19.08;6.72;;;;;;;-141.50;100.00;63355.56;4930621;29;20043;-83
2021/10/25 08:01:37;;;;;;;16.25;5.30;;;;;;;-141.50;100.00;63355.56;4979026;28;20046;-79
2021/10/25 08:06:46;;;;;;;15.63;5.20;;;;;;;-141.50;100.00;63355.56;4976368;28;20042;-83
2021/10/25 08:11:44;;;;;;;12.60;5.05;;;;;;;-141.50;100.00;63355.56;4957783;28;20402;-81
2021/10/25 08:14:29;;;;;;;15.90;5.03;;;;;;;-141.50;100.00;63355.56;4974712;28;20451;-80
2021/10/25 08:16:57;;;;;;;14.40;4.90;;;;;;;-141.50;100.00;63355.56;4974176;28;20047;-80
2021/10/25 08:19:27;;;;;;;13.55;5.15;;;;;;;-141.50;100.00;63355.56;4974886;28;20043;-81
2021/10/25 08:22:00;;;;;;;16.73;4.45;;;;;;;-141.50;100.00;63355.56;4974390;28;20105;-82
2021/10/25 08:24:29;;;;;;;18.48;4.55;;;;;;;-141.50;100.00;63355.56;4957117;28;20043;-81
2021/10/25 08:26:56;;;;;;;12.23;4.53;;;;;;;-141.50;100.00;63355.56;4957024;28;20522;-82
2021/10/25 08:29:23;;;;;;;11.35;4.40;;;;;;;-141.50;100.00;63355.56;4957599;28;20066;-82
2021/10/25 08:32:08;;;;;;;11.23;4.38;;;;;;;-141.50;100.00;63355.56;4974587;28;20043;-82
2021/10/25 08:39:57;;;;;;;12.00;3.75;;;;;;;-141.50;100.00;63355.56;4993985;28;20475;-81
2021/10/25 08:42:30;;;;;;;12.25;3.80;;;;;;;-141.50;100.00;63355.56;4979362;28;20061;-79
2021/10/25 08:45:08;;;;;;;9.57;3.65;;;;;;;-141.50;100.00;63355.56;4995087;28;20514;-81
2021/10/25 08:47:40;;;;;;;7.00;3.38;;;;;;;-141.50;100.00;63355.56;4994769;28;20498;-81
2021/10/25 08:50:10;;;;;;;12.10;3.60;;;;;;;-141.50;100.00;63355.56;4994584;28;20399;-81
2021/10/25 08:52:38;;;;;;;8.77;3.10;;;;;;;-141.50;100.00;63355.56;4976065;28;20047;-82
2021/10/25 08:55:06;;;;;;;9.15;3.63;;;;;;;-141.50;100.00;63355.56;4975918;28;20057;-82
2021/10/25 08:57:33;;;;;;;9.95;3.60;;;;;;;-141.50;100.00;63355.56;4993888;28;20065;-82
2021/10/25 09:00:07;;;;;;;10.35;4.03;;;;;;;-141.50;100.00;63355.56;4993712;28;20053;-82
2021/10/25 09:02:34;;;;;;;10.35;3.85;;;;;;;-141.50;100.00;63355.56;4975645;28;20514;-81
2021/10/25 09:05:07;;;;;;;10.57;3.63;;;;;;;-141.50;100.00;63355.56;4977981;28;20138;-81
2021/10/25 09:07:51;;;;;;;12.95;3.42;;;;;;;-141.50;100.00;63355.56;4955301;28;20046;-81
2021/10/25 09:10:33;;;;;;;12.40;3.58;;;;;;;-141.50;100.00;63355.56;4974154;28;20039;-80
2021/10/25 09:13:02;;;;;;;9.48;3.53;;;;;;;-141.50;100.00;63355.56;4940480;28;20052;-81
2021/10/25 09:15:32;;;;;;;10.20;3.50;;;;;;;-141.50;100.00;63355.56;4973223;28;20183;-82
2021/10/25 09:18:07;;;;;;;13.13;3.83;;;;;;;-141.50;100.00;63355.56;4973076;28;20047;-80
2021/10/25 09:20:48;;;;;;;8.50;3.70;;;;;;;-141.50;100.00;63355.56;4974251;28;20046;-81
2021/10/25 09:23:22;;;;;;;8.43;3.17;;;;;;;-141.50;100.00;63355.56;4956142;28;20695;-81
2021/10/25 09:25:58;;;;;;;10.68;3.40;;;;;;;-141.50;100.00;63355.56;4972667;28;20113;-81
2021/10/25 09:28:29;;;;;;;10.68;3.25;;;;;;;-141.50;100.00;63355.56;4973918;28;20051;-81
2021/10/25 09:31:12;;;;;;;9.27;2.90;;;;;;;-141.50;100.00;63355.56;4975977;28;20077;-81
2021/10/25 09:33:41;;;;;;;8.20;3.03;;;;;;;-141.50;100.00;63355.56;4976890;28;20465;-81
2021/10/25 09:36:13;;;;;;;9.77;3.33;;;;;;;-141.50;100.00;63355.56;4986252;28;20049;-81
2021/10/25 09:41:48;;;;;;;10.20;3.22;;;;;;;-141.50;100.00;63355.56;4981791;28;20053;-81
2021/10/25 09:50:11;;;;;;;7.75;3.08;;;;;;;-141.50;100.00;63355.56;4989020;28;20054;-81
2021/10/25 09:52:42;;;;;;;8.75;3.17;;;;;;;-141.50;100.00;63355.56;4976518;28;20042;-81
2021/10/25 09:55:12;;;;;;;9.95;3.47;;;;;;;-141.50;100.00;63355.56;4957852;28;20043;-81
2021/10/25 10:00:16;;;;;;;4.82;2.80;;;;;;;-141.50;100.00;63355.56;4957020;28;20050;-80
2021/10/25 10:02:43;;;;;;;6.90;2.50;;;;;;;-141.50;100.00;63355.56;4957509;28;20046;-80
2021/10/25 10:05:14;;;;;;;5.88;2.35;;;;;;;-141.50;100.00;63355.56;4940827;28;20055;-81
2021/10/25 10:07:42;;;;;;;4.88;2.10;;;;;;;-141.50;100.00;63355.56;4985657;28;20093;-83
2021/10/25 10:10:11;;;;;;;3.75;2.08;;;;;;;-141.50;100.00;63355.56;4969768;28;20403;-83
2021/10/25 10:12:40;;;;;;;4.78;2.13;;;;;;;-141.50;100.00;63355.56;4990929;28;20053;-83
2021/10/25 10:15:08;;;;;;;4.60;1.90;;;;;;;-141.50;100.00;63355.56;4975764;28;20129;-84
2021/10/25 10:18:16;;;;;;;4.07;1.88;;;;;;;-141.50;100.00;63355.56;4997306;28;20145;-82
2021/10/25 10:20:47;;;;;;;4.40;1.90;;;;;;;-141.50;100.00;63355.56;4946700;28;20063;-83
2021/10/25 10:23:17;;;;;;;3.58;1.92;;;;;;;-141.50;100.00;63355.56;4972898;28;20047;-83
2021/10/25 10:25:51;;;;;;;5.13;1.90;;;;;;;-141.50;100.00;63355.56;4955526;28;20051;-82
2021/10/25 10:28:30;;;;;;;3.33;1.80;;;;;;;-141.50;100.00;63355.56;4955716;28;20038;-82
2021/10/25 10:30:57;;;;;;;4.53;1.80;;;;;;;-141.50;100.00;63355.56;4972792;28;20070;-83
2021/10/25 10:33:42;;;;;;;2.60;1.63;;;;;;;-141.50;100.00;63355.56;4955225;28;20053;-83
2021/10/25 10:36:23;;;;;;;4.72;2.05;;;;;;;-141.50;100.00;63355.56;4963321;28;20057;-84
2021/10/25 10:38:54;;;;;;;3.65;2.00;;;;;;;-141.50;100.00;63355.56;4963918;28;20109;-83
2021/10/25 10:41:33;;;;;;;7.13;2.28;;;;;;;-141.50;100.00;63355.56;4942143;29;20051;-82
2021/10/25 10:44:07;;;;;;;4.80;2.10;;;;;;;-141.50;100.00;63355.56;4950063;28;20050;-82
2021/10/25 10:46:59;;;;;;;5.60;2.20;;;;;;;-141.50;100.00;63355.56;4961005;28;20038;-83
2021/10/25 10:49:35;;;;;;;3.55;2.03;;;;;;;-141.50;100.00;63355.56;4990295;28;20046;-83
2021/10/25 10:52:02;;;;;;;;;;;;;;;-141.50;100.00;63355.56;4974069;28;20627;-82
2021/10/25 10:54:39;;;;;;;5.10;2.15;;;;;;;-141.50;100.00;63355.56;4955902;28;19922;-80
2021/10/25 10:57:21;;;;;;;5.38;2.05;;;;;;;-141.50;100.00;63355.56;4973879;28;20124;-82
2021/10/25 10:59:50;;;;;;;4.57;2.03;;;;;;;-141.50;100.00;63355.56;4955958;28;20051;-82
2021/10/25 11:02:19;;;;;;;5.05;2.20;;;;;;;-141.50;100.00;63355.56;4975465;28;20526;-81
2021/10/25 11:04:46;;;;;;;6.40;2.10;;;;;;;-141.50;100.00;63355.56;4971360;28;20138;-83
2021/10/25 11:07:13;;;;;;;5.88;2.15;;;;;;;-141.50;100.00;63355.56;4986741;28;20042;-80
2021/10/25 11:09:40;;;;;;;5.68;2.28;;;;;;;-141.50;100.00;63355.56;4972285;28;20117;-83
2021/10/25 11:12:26;;;;;;;6.75;2.45;;;;;;;-141.50;100.00;63355.56;4941277;28;20043;-81
2021/10/25 11:14:56;;;;;;;6.13;2.30;;;;;;;-141.50;100.00;63355.56;4972941;28;20051;-82
2021/10/25 11:17:26;;;;;;;5.75;2.28;;;;;;;-141.50;100.00;63355.56;4955500;28;20126;-83
2021/10/25 11:19:56;;;;;;;4.97;2.20;;;;;;;-141.50;100.00;63355.56;4973742;28;20413;-81
2021/10/25 11:22:35;;;;;;;5.45;2.25;;;;;;;-141.50;100.00;63355.56;4957652;28;20058;-82
2021/10/25 11:25:05;;;;;;;7.05;2.10;;;;;;;-141.50;100.00;63355.56;4974045;28;20058;-82
2021/10/25 11:27:35;;;;;;;6.80;2.22;;;;;;;-141.50;100.00;63355.56;4972682;28;20047;-82
2021/10/25 11:30:11;;;;;;;6.40;2.00;;;;;;;-141.50;100.00;63355.56;4974334;28;20047;-84
2021/10/25 11:32:39;;;;;;;6.57;2.28;;;;;;;-141.50;100.00;63355.56;4976535;28;20061;-81
2021/10/25 11:35:12;;;;;;;7.00;2.20;;;;;;;-141.50;100.00;63355.56;4942147;28;20058;-82
2021/10/25 11:37:47;;;;;;;5.60;2.22;;;;;;;-141.50;100.00;63355.56;4973963;28;20088;-81
2021/10/25 11:40:18;;;;;;;11.35;2.80;;;;;;;-141.50;100.00;63355.56;4977810;28;20069;-81
2021/10/25 11:42:45;;;;;;;7.20;2.63;;;;;;;-141.50;100.00;63355.56;4999103;28;20085;-83
2021/10/25 11:45:25;;;;;;;5.25;2.80;;;;;;;-141.50;100.00;63355.56;4966970;28;20133;-81
2021/10/25 11:47:53;;;;;;;6.38;2.22;;;;;;;-141.50;100.00;63355.56;4962664;28;20043;-81
2021/10/25 11:50:26;;;;;;;7.05;3.17;;;;;;;-141.50;100.00;63355.56;4976349;28;20454;-81
2021/10/25 11:53:04;;;;;;;8.93;2.97;;;;;;;-141.50;100.00;63355.56;4998758;28;20071;-84
2021/10/25 11:55:41;;;;;;;7.53;2.80;;;;;;;-141.50;100.00;63355.56;4982476;28;20052;-82
2021/10/25 11:58:12;;;;;;;6.65;2.53;;;;;;;-141.50;100.00;63355.56;4999031;28;20046;-82
2021/10/25 12:00:48;;;;;;;7.18;2.60;;;;;;;-141.50;100.00;63355.56;4982188;28;20054;-83
2021/10/25 12:03:17;;;;;;;6.82;2.60;;;;;;;-141.50;100.00;63355.56;4999132;28;20093;-80
2021/10/25 12:05:45;;;;;;;4.20;2.30;;;;;;;-141.50;100.00;63355.56;4980371;28;20049;-82
2021/10/25 12:08:16;;;;;;;6.32;2.58;;;;;;;-141.50;100.00;63355.56;4980427;28;20053;-81
2021/10/25 12:10:46;;;;;;;6.97;2.88;;;;;;;-141.50;100.00;63355.56;4981594;28;20617;-80
2021/10/25 12:13:12;;;;;;;5.63;2.50;;;;;;;-141.50;100.00;63355.56;4989777;28;20105;-82
2021/10/25 12:16:02;;;;;;;6.43;2.60;;;;;;;-141.50;100.00;63355.56;4980008;28;20050;-80
2021/10/25 12:18:29;;;;;;;6.30;2.80;;;;;;;-141.50;100.00;63355.56;4976596;28;20066;-81
2021/10/25 12:21:10;;;;;;;7.15;2.78;;;;;;;-141.50;100.00;63355.56;4979709;28;20051;-82
2021/10/25 12:23:46;;;;;;;8.55;2.85;;;;;;;-141.50;100.00;63355.56;4976539;28;20498;-79
2021/10/25 12:26:18;;;;;;;10.20;3.10;;;;;;;-141.50;100.00;63355.56;4978808;28;20045;-81
2021/10/25 12:28:44;;;;;;;6.18;2.60;;;;;;;-141.50;100.00;63355.56;4976734;28;20049;-83
2021/10/25 12:31:15;;;;;;;5.47;2.53;;;;;;;-141.50;100.00;63355.56;4975131;28;20419;-81
2021/10/25 12:33:45;;;;;;;8.13;3.35;;;;;;;-141.50;100.00;63355.56;4975834;28;20046;-82
2021/10/25 12:36:21;;;;;;;10.77;3.90;;;;;;;-141.50;100.00;63355.56;4958665;28;20046;-81
2021/10/25 12:38:51;;;;;;;4.82;2.85;;;;;;;-141.50;100.00;63355.56;4958111;28;20431;-80
2021/10/25 12:41:18;;;;;;;7.43;2.70;;;;;;;-141.50;100.00;63355.56;4959030;28;20050;-82
2021/10/25 12:43:48;;;;;;;5.45;2.53;;;;;;;-141.50;100.00;63355.56;4978798;28;20671;-83
2021/10/25 12:46:17;;;;;;;5.72;2.50;;;;;;;-141.50;100.00;63355.56;4975119;28;20072;-79
2021/10/25 12:48:50;;;;;;;3.05;2.03;;;;;;;-141.50;100.00;63355.56;4994576;28;20047;-81
2021/10/25 12:51:19;;;;;;;4.53;2.50;;;;;;;-141.50;100.00;63355.56;4977233;28;20527;-80
2021/10/25 12:53:48;;;;;;;6.82;2.17;;;;;;;-141.50;100.00;63355.56;5006594;28;20054;-82
2021/10/25 12:56:28;;;;;;;8.15;2.70;;;;;;;-141.50;100.00;63355.56;4998371;28;20050;-81
2021/10/25 12:59:02;;;;;;;7.68;2.30;;;;;;;-141.50;100.00;63355.56;4999966;28;20050;-83